Main page
METAR-TAF:

METAR-TAF

Airports :

Murray-Calloway County Airport

Murray, Kentucky, United States

latitude: 36-39-52N, longitude: 088-22-22W, elevation: 577 ft

Current weather observation

The report was made 6 hours and 22 minutes ago, at 03:55 UTC
Wind 5 mph from the South/Southeast
Temperature 37°F
Humidity 48%
Pressure 30.27 in. Hg
Visibility: 10 miles
Clear sky

METAR: KCEY 230355Z AUTO 15004KT 10SM CLR 03/M07 A3027 RMK AO1

Time: 04:17 (10:17 UTC)


TAF: missing

Weather observations and forecasts of more than 4000 airports (METAR and TAF reports).

The available stations are represented by yellow and red dots on the map.

Hover mouse over dot to see the name of the station.

Then click to see weather observations and forecasts.

To change the map : click on the green buttons with a black cross to zoom in, on the green button with a dash to zoom out, or on the green arrows for adjacent maps.


METAR-TAF: